createdAt,value
2018-08-31T00:01:48.684Z,12.20
2018-08-31T00:06:47.359Z,13.17
2018-08-31T00:09:42.329Z,11.17
2018-08-31T00:12:37.801Z,11.47
2018-08-31T00:15:08.712Z,10.93
2018-08-31T00:17:41.313Z,13.73
2018-08-31T00:20:13.276Z,11.20
2018-08-31T00:22:43.826Z,12.50
2018-08-31T00:26:30.839Z,11.53
2018-08-31T00:29:51.130Z,11.07
2018-08-31T00:34:45.450Z,13.40
2018-08-31T00:37:34.355Z,16.07
2018-08-31T00:40:48.064Z,12.87
2018-08-31T00:43:37.724Z,14.33
2018-08-31T00:46:08.046Z,11.17
2018-08-31T00:48:38.516Z,10.70
2018-08-31T00:51:09.071Z,13.30
2018-08-31T00:53:39.514Z,11.07
2018-08-31T00:56:09.999Z,12.77
2018-08-31T00:58:40.567Z,12.30
2018-08-31T01:01:11.000Z,11.63
2018-08-31T01:03:41.575Z,11.07
2018-08-31T01:06:12.093Z,11.37
2018-08-31T01:08:42.553Z,10.60
2018-08-31T01:11:13.500Z,11.20
2018-08-31T01:13:43.924Z,12.47
2018-08-31T01:16:14.353Z,10.53
2018-08-31T01:18:44.758Z,12.33
2018-08-31T01:21:16.041Z,13.77
2018-08-31T01:23:47.009Z,13.90
2018-08-31T01:26:17.533Z,12.20
2018-08-31T01:28:48.114Z,13.60
2018-08-31T01:31:18.578Z,12.93
2018-08-31T01:33:48.965Z,14.57
2018-08-31T01:36:19.210Z,13.30
2018-08-31T01:38:49.563Z,14.33
2018-08-31T01:41:20.019Z,13.77
2018-08-31T01:43:50.575Z,12.60
2018-08-31T01:46:21.122Z,11.30
2018-08-31T01:48:51.655Z,13.37
2018-08-31T01:51:22.488Z,14.30
2018-08-31T01:53:53.388Z,15.53
2018-08-31T01:56:25.106Z,14.37
2018-08-31T01:58:55.554Z,14.70
2018-08-31T02:01:26.256Z,15.13
2018-08-31T02:03:59.905Z,14.03
2018-08-31T02:06:30.369Z,14.47
2018-08-31T02:09:05.753Z,14.23
2018-08-31T02:11:36.382Z,15.13
2018-08-31T02:14:07.479Z,14.67
2018-08-31T02:16:38.354Z,16.17
2018-08-31T02:19:08.810Z,17.63
2018-08-31T02:21:39.498Z,18.00
2018-08-31T02:24:09.978Z,18.20
2018-08-31T02:26:40.475Z,17.57
2018-08-31T02:29:11.034Z,19.53
2018-08-31T02:31:41.701Z,20.57
2018-08-31T02:34:12.800Z,18.60
2018-08-31T02:36:43.139Z,13.17
2018-08-31T02:39:13.710Z,12.27
2018-08-31T02:41:44.121Z,12.13
2018-08-31T02:44:14.623Z,11.77
2018-08-31T02:46:44.946Z,12.33
2018-08-31T02:49:15.219Z,12.30
2018-08-31T02:51:45.916Z,11.63
2018-08-31T02:54:16.389Z,13.30
2018-08-31T02:56:46.839Z,12.50
2018-08-31T02:59:17.367Z,11.53
2018-08-31T03:01:48.711Z,13.50
2018-08-31T03:04:19.750Z,12.03
2018-08-31T03:06:50.317Z,12.67
2018-08-31T03:09:20.804Z,12.77
2018-08-31T03:11:51.276Z,17.27
2018-08-31T03:14:21.874Z,15.83
2018-08-31T03:16:52.359Z,13.67
2018-08-31T03:19:22.820Z,15.30
2018-08-31T03:21:53.395Z,15.23
2018-08-31T03:24:23.880Z,17.23
2018-08-31T03:26:54.224Z,16.47
2018-08-31T03:29:24.624Z,16.47
2018-08-31T03:31:55.110Z,16.37
2018-08-31T03:34:25.615Z,15.87
2018-08-31T03:36:56.077Z,15.20
2018-08-31T03:39:26.447Z,15.90
2018-08-31T03:41:56.686Z,14.57
2018-08-31T03:44:27.281Z,14.93
2018-08-31T03:46:57.812Z,15.30
2018-08-31T03:49:28.521Z,16.57
2018-08-31T03:51:59.155Z,17.17
2018-08-31T03:54:30.463Z,17.73
2018-08-31T03:57:01.717Z,17.23
2018-08-31T03:59:32.254Z,20.27
2018-08-31T04:02:03.098Z,21.20
2018-08-31T04:04:33.434Z,23.43
2018-08-31T04:07:03.961Z,21.23
2018-08-31T04:09:34.399Z,31.67
2018-08-31T04:12:05.210Z,30.97
2018-08-31T04:14:35.733Z,30.60
2018-08-31T04:17:06.179Z,32.73
2018-08-31T04:19:36.592Z,34.93
2018-08-31T04:22:07.163Z,37.83
2018-08-31T04:24:37.679Z,35.60
2018-08-31T04:27:08.235Z,31.53
2018-08-31T04:29:38.833Z,37.20
2018-08-31T04:32:09.335Z,39.87
2018-08-31T04:34:39.941Z,41.17
2018-08-31T04:37:10.609Z,39.30
2018-08-31T04:39:41.316Z,43.40
2018-08-31T04:42:11.796Z,39.17
2018-08-31T04:44:42.353Z,38.00
2018-08-31T04:47:13.028Z,36.90
2018-08-31T04:49:43.518Z,36.43
2018-08-31T04:52:14.091Z,43.07
2018-08-31T04:54:44.625Z,37.47
2018-08-31T04:57:15.067Z,41.97
2018-08-31T04:59:45.605Z,42.50
2018-08-31T05:02:16.596Z,35.37
2018-08-31T05:04:47.924Z,34.93
2018-08-31T05:07:19.839Z,37.73
2018-08-31T05:09:50.386Z,41.07
2018-08-31T05:12:21.052Z,30.97
2018-08-31T05:14:51.531Z,31.07
2018-08-31T05:17:21.915Z,28.50
2018-08-31T05:19:52.464Z,32.50
2018-08-31T05:22:23.183Z,31.80
2018-08-31T05:24:53.693Z,32.17
2018-08-31T05:27:24.141Z,31.90
2018-08-31T05:29:54.677Z,36.27
2018-08-31T05:32:25.211Z,30.90
2018-08-31T05:34:55.617Z,32.67
2018-08-31T05:37:26.040Z,31.90
2018-08-31T05:39:56.565Z,27.50
2018-08-31T05:42:27.122Z,31.20
2018-08-31T05:44:57.916Z,28.87
2018-08-31T05:47:28.694Z,26.23
2018-08-31T05:49:59.195Z,23.77
2018-08-31T05:52:30.011Z,22.43
2018-08-31T05:55:00.490Z,23.00
2018-08-31T05:57:31.164Z,23.60
2018-08-31T06:00:01.686Z,22.60
2018-08-31T06:02:32.204Z,22.10
2018-08-31T06:05:02.698Z,18.03
2018-08-31T06:07:33.474Z,19.53
2018-08-31T06:10:05.271Z,19.00
2018-08-31T06:12:35.836Z,18.53
2018-08-31T06:15:06.834Z,23.27
2018-08-31T06:17:37.805Z,20.00
2018-08-31T06:20:09.954Z,17.40
2018-08-31T06:22:40.461Z,16.47
2018-08-31T06:25:11.280Z,17.10
2018-08-31T06:27:41.986Z,17.63
2018-08-31T06:30:12.450Z,17.20
2018-08-31T06:32:42.918Z,17.53
2018-08-31T06:35:14.064Z,16.93
2018-08-31T06:37:44.550Z,16.27
2018-08-31T06:40:15.226Z,14.57
2018-08-31T06:42:45.905Z,14.70
2018-08-31T06:45:16.629Z,13.03
2018-08-31T06:47:48.237Z,13.07
2018-08-31T06:50:18.662Z,13.07
2018-08-31T06:52:49.267Z,11.97
2018-08-31T06:55:21.379Z,13.80
2018-08-31T06:57:52.243Z,12.93
2018-08-31T07:00:23.072Z,13.13
2018-08-31T07:02:56.092Z,14.73
2018-08-31T07:05:26.673Z,12.10
2018-08-31T07:07:57.475Z,13.03
2018-08-31T07:10:28.254Z,13.23
2018-08-31T07:12:58.944Z,16.03
2018-08-31T07:15:29.609Z,12.43
2018-08-31T07:18:00.570Z,12.53
2018-08-31T07:20:31.911Z,12.37
2018-08-31T07:23:02.581Z,11.37
2018-08-31T07:25:33.327Z,13.67
2018-08-31T07:28:03.851Z,11.80
2018-08-31T07:30:35.022Z,13.13
2018-08-31T07:33:05.767Z,17.97
2018-08-31T07:35:37.642Z,11.30
2018-08-31T07:38:08.281Z,10.03
2018-08-31T07:40:39.015Z,11.30
2018-08-31T07:43:09.563Z,12.43
2018-08-31T07:45:40.190Z,10.73
2018-08-31T07:48:10.818Z,10.83
2018-08-31T07:50:41.360Z,11.97
2018-08-31T07:53:12.104Z,13.33
2018-08-31T07:55:42.866Z,15.17
2018-08-31T07:58:13.545Z,13.80
2018-08-31T08:00:44.645Z,10.17
2018-08-31T08:03:15.066Z,11.33
2018-08-31T08:05:46.490Z,9.00
2018-08-31T08:08:17.196Z,8.50
2018-08-31T08:10:49.935Z,9.00
2018-08-31T08:13:20.836Z,8.83
2018-08-31T08:15:52.623Z,9.10
2018-08-31T08:18:23.288Z,8.73
2018-08-31T08:20:54.051Z,9.57
2018-08-31T08:23:24.865Z,12.67
2018-08-31T08:25:56.729Z,21.33
2018-08-31T08:28:27.344Z,8.90
2018-08-31T08:30:58.298Z,24.07
2018-08-31T08:33:29.122Z,19.77
2018-08-31T08:35:59.919Z,12.07
2018-08-31T08:38:30.905Z,8.73
2018-08-31T08:41:01.735Z,10.90
2018-08-31T08:43:32.515Z,8.67
2018-08-31T08:46:04.817Z,13.30
2018-08-31T08:48:35.765Z,10.70
2018-08-31T08:51:06.701Z,8.80
2018-08-31T08:53:37.362Z,11.23
2018-08-31T08:56:08.575Z,8.17
2018-08-31T08:58:39.587Z,7.70
2018-08-31T09:01:10.364Z,10.97
2018-08-31T09:03:41.130Z,8.53
2018-08-31T09:06:12.824Z,9.03
2018-08-31T09:08:44.215Z,8.40
2018-08-31T09:11:14.865Z,7.77
2018-08-31T09:13:45.994Z,7.90
2018-08-31T09:16:16.865Z,8.20
2018-08-31T09:18:47.446Z,7.87
2018-08-31T09:21:17.911Z,7.33
2018-08-31T09:23:48.699Z,7.10
2018-08-31T09:26:19.249Z,9.67
2018-08-31T09:28:49.904Z,6.60
2018-08-31T09:31:20.857Z,7.83
2018-08-31T09:33:51.591Z,9.97
2018-08-31T09:36:22.010Z,7.53
2018-08-31T09:38:52.573Z,11.73
2018-08-31T09:41:23.296Z,8.77
2018-08-31T09:43:54.318Z,6.83
2018-08-31T09:46:25.752Z,8.03
2018-08-31T09:48:57.445Z,11.03
2018-08-31T09:51:28.734Z,7.57
2018-08-31T09:53:59.734Z,10.37
2018-08-31T09:56:30.385Z,10.93
2018-08-31T09:59:01.335Z,8.50
2018-08-31T10:01:36.905Z,7.43
2018-08-31T10:04:08.050Z,8.63
2018-08-31T10:06:39.240Z,10.50
2018-08-31T10:09:11.136Z,9.40
2018-08-31T10:11:41.923Z,8.80
2018-08-31T10:14:12.527Z,7.60
2018-08-31T10:16:43.283Z,7.47
2018-08-31T10:19:14.707Z,8.53
2018-08-31T10:21:46.001Z,9.53
2018-08-31T10:24:16.486Z,10.30
2018-08-31T10:26:47.223Z,8.67
2018-08-31T10:29:17.848Z,10.77
2018-08-31T10:31:48.385Z,11.33
2018-08-31T10:34:19.035Z,8.57
2018-08-31T10:36:50.086Z,8.53
2018-08-31T10:39:20.588Z,8.87
2018-08-31T10:41:51.294Z,10.57
2018-08-31T10:44:21.954Z,7.60
2018-08-31T10:46:52.666Z,8.17
2018-08-31T10:49:23.144Z,8.70
2018-08-31T10:51:54.597Z,8.53
2018-08-31T10:54:25.257Z,7.60
2018-08-31T10:56:55.925Z,8.87
2018-08-31T10:59:27.656Z,11.33
2018-08-31T11:01:58.245Z,9.97
2018-08-31T11:04:28.908Z,8.17
2018-08-31T11:06:59.455Z,8.40
2018-08-31T11:09:30.113Z,8.07
2018-08-31T11:12:00.779Z,9.27
2018-08-31T11:14:31.415Z,10.47
2018-08-31T11:17:01.965Z,15.07
2018-08-31T11:19:33.432Z,17.03
2018-08-31T11:22:04.159Z,13.53
2018-08-31T11:24:35.841Z,12.67
2018-08-31T11:27:06.398Z,12.00
2018-08-31T11:29:37.102Z,13.17
2018-08-31T11:32:09.084Z,14.20
2018-08-31T11:34:41.115Z,15.80
2018-08-31T11:37:12.760Z,12.17
2018-08-31T11:39:43.289Z,15.90
2018-08-31T11:42:13.712Z,16.60
2018-08-31T11:44:44.176Z,13.73
2018-08-31T11:47:15.036Z,12.20
2018-08-31T11:49:45.631Z,12.27
2018-08-31T11:52:16.996Z,12.37
2018-08-31T11:54:47.859Z,15.07
2018-08-31T11:57:19.219Z,15.60
2018-08-31T11:59:50.352Z,15.37
2018-08-31T12:02:21.372Z,15.47
2018-08-31T12:04:51.968Z,13.70
2018-08-31T12:07:22.608Z,18.73
2018-08-31T12:09:53.133Z,14.23
2018-08-31T12:12:23.942Z,14.60
2018-08-31T12:14:54.901Z,17.57
2018-08-31T12:17:25.670Z,15.93
2018-08-31T12:19:56.678Z,17.10
2018-08-31T12:22:27.579Z,16.47
2018-08-31T12:24:58.565Z,13.40
2018-08-31T12:27:29.765Z,14.00
2018-08-31T12:30:00.807Z,14.27
2018-08-31T12:32:32.083Z,13.30
2018-08-31T12:35:04.056Z,12.77
2018-08-31T12:37:40.817Z,14.57
2018-08-31T12:40:12.757Z,14.97
2018-08-31T12:42:43.707Z,16.63
2018-08-31T12:45:14.498Z,17.50
2018-08-31T12:47:47.264Z,14.00
2018-08-31T12:50:18.223Z,14.83
2018-08-31T12:52:48.965Z,13.97
2018-08-31T12:55:20.240Z,15.13
2018-08-31T12:57:50.882Z,17.23
2018-08-31T13:00:21.885Z,16.93
2018-08-31T13:02:52.682Z,20.03
2018-08-31T13:05:23.351Z,14.53
2018-08-31T13:07:54.043Z,13.83
2018-08-31T13:10:24.811Z,13.93
2018-08-31T13:12:58.029Z,13.80
2018-08-31T13:15:31.071Z,14.50
2018-08-31T13:18:01.891Z,15.43
2018-08-31T13:20:34.174Z,16.23
2018-08-31T13:23:05.601Z,14.07
2018-08-31T13:25:36.242Z,15.33
2018-08-31T13:28:06.960Z,14.00
2018-08-31T13:30:37.608Z,13.80
2018-08-31T13:33:09.022Z,13.27
2018-08-31T13:35:39.797Z,12.00
2018-08-31T13:38:10.688Z,12.47
2018-08-31T13:40:41.453Z,13.30
2018-08-31T13:43:13.235Z,14.60
2018-08-31T13:45:44.296Z,14.30
2018-08-31T13:48:15.255Z,14.23
2018-08-31T13:50:46.274Z,12.03
2018-08-31T13:53:17.285Z,13.57
2018-08-31T13:55:48.047Z,13.60
2018-08-31T13:58:18.830Z,9.93
2018-08-31T14:00:49.624Z,13.33
2018-08-31T14:03:20.441Z,13.20
2018-08-31T14:05:51.284Z,14.20
2018-08-31T14:08:22.064Z,15.40
2018-08-31T14:10:52.892Z,13.97
2018-08-31T14:13:24.160Z,12.03
2018-08-31T14:15:55.402Z,13.20
2018-08-31T14:18:28.324Z,14.50
2018-08-31T14:20:59.393Z,10.03
2018-08-31T14:23:30.238Z,14.83
2018-08-31T14:26:02.132Z,12.53
2018-08-31T14:28:33.296Z,14.73
2018-08-31T14:31:04.279Z,12.80
2018-08-31T14:34:22.809Z,13.23
2018-08-31T14:36:54.019Z,12.30
2018-08-31T14:39:28.139Z,15.70
2018-08-31T14:41:59.003Z,10.80
2018-08-31T14:44:30.127Z,12.70
2018-08-31T14:47:00.949Z,12.63
2018-08-31T14:49:33.970Z,10.53
2018-08-31T14:52:04.608Z,10.90
2018-08-31T14:54:36.385Z,14.97
2018-08-31T14:57:07.166Z,12.23
2018-08-31T14:59:37.921Z,14.60
2018-08-31T15:02:11.741Z,12.77
2018-08-31T15:04:44.241Z,13.50
2018-08-31T15:07:17.058Z,15.20
2018-08-31T15:09:50.478Z,11.97
2018-08-31T15:12:24.901Z,10.70
2018-08-31T15:14:57.000Z,15.33
2018-08-31T15:17:31.555Z,15.10
2018-08-31T15:20:03.487Z,14.43
2018-08-31T15:22:37.296Z,14.77
2018-08-31T15:25:10.053Z,14.67
2018-08-31T15:27:43.092Z,13.10
2018-08-31T15:30:21.263Z,12.23
2018-08-31T15:33:01.412Z,15.27
2018-08-31T15:35:34.190Z,16.37
2018-08-31T15:38:07.292Z,16.80
2018-08-31T15:40:40.522Z,14.50
2018-08-31T15:43:12.670Z,12.33
2018-08-31T15:45:45.873Z,17.37
2018-08-31T15:48:17.926Z,17.30
2018-08-31T15:50:49.623Z,14.80
2018-08-31T15:53:24.810Z,17.30
2018-08-31T15:55:56.547Z,20.10
2018-08-31T15:58:27.525Z,14.13
2018-08-31T16:00:59.585Z,19.47
2018-08-31T16:03:30.877Z,16.63
2018-08-31T16:06:01.941Z,17.93
2018-08-31T16:08:33.328Z,21.37
2018-08-31T16:11:03.846Z,18.53
2018-08-31T16:13:34.743Z,15.77
2018-08-31T16:16:05.519Z,16.67
2018-08-31T16:18:36.212Z,21.33
2018-08-31T16:21:07.800Z,14.97
2018-08-31T16:23:38.820Z,16.63
2018-08-31T16:26:09.398Z,14.50
2018-08-31T16:28:40.413Z,18.43
2018-08-31T16:31:11.396Z,18.63
2018-08-31T16:33:43.625Z,17.33
2018-08-31T16:36:14.212Z,14.87
2018-08-31T16:38:44.820Z,18.37
2018-08-31T16:41:15.864Z,15.47
2018-08-31T16:43:46.490Z,14.80
2018-08-31T16:46:17.030Z,16.13
2018-08-31T16:48:47.977Z,17.17
2018-08-31T16:51:19.434Z,16.70
2018-08-31T16:53:50.628Z,21.20
2018-08-31T16:56:22.197Z,15.43
2018-08-31T16:58:54.154Z,18.37
2018-08-31T17:01:24.881Z,18.30
2018-08-31T17:03:56.372Z,22.00
2018-08-31T17:06:27.310Z,17.63
2018-08-31T17:08:59.311Z,17.00
2018-08-31T17:11:30.018Z,22.73
2018-08-31T17:14:00.740Z,20.27
2018-08-31T17:16:32.223Z,17.37
2018-08-31T17:19:04.658Z,17.50
2018-08-31T17:21:35.495Z,17.63
2018-08-31T17:24:06.873Z,15.00
2018-08-31T17:26:45.846Z,17.03
2018-08-31T17:29:21.923Z,16.80
2018-08-31T17:31:58.472Z,22.07
2018-08-31T17:34:36.319Z,20.77
2018-08-31T17:37:13.009Z,19.83
2018-08-31T17:39:44.860Z,18.67
2018-08-31T17:42:15.839Z,17.93
2018-08-31T17:44:46.734Z,15.30
2018-08-31T17:47:17.521Z,18.70
2018-08-31T17:49:48.812Z,20.90
2018-08-31T17:52:21.526Z,18.87
2018-08-31T17:54:53.440Z,18.20
2018-08-31T17:57:24.749Z,16.13
2018-08-31T17:59:56.146Z,19.80
2018-08-31T18:02:27.741Z,20.20
2018-08-31T18:04:59.281Z,20.83
2018-08-31T18:07:31.058Z,17.23
2018-08-31T18:10:03.312Z,17.80
2018-08-31T18:12:35.699Z,16.83
2018-08-31T18:15:07.686Z,19.87
2018-08-31T18:17:39.661Z,19.03
2018-08-31T18:20:12.125Z,25.03
2018-08-31T18:22:44.188Z,20.30
2018-08-31T18:25:16.765Z,18.73
2018-08-31T18:27:48.581Z,26.70
2018-08-31T18:30:21.181Z,21.17
2018-08-31T18:32:53.352Z,27.10
2018-08-31T18:35:25.348Z,20.07
2018-08-31T18:37:57.923Z,14.43
2018-08-31T18:40:30.155Z,21.57
2018-08-31T18:43:01.970Z,21.37
2018-08-31T18:45:33.928Z,22.77
2018-08-31T18:48:06.889Z,24.47
2018-08-31T18:50:39.114Z,24.10
2018-08-31T18:53:11.308Z,25.90
2018-08-31T18:55:43.823Z,24.17
2018-08-31T18:58:15.886Z,22.53
2018-08-31T19:00:47.706Z,23.30
2018-08-31T19:03:20.329Z,20.97
2018-08-31T19:05:52.095Z,26.60
2018-08-31T19:08:25.151Z,21.63
2018-08-31T19:10:59.272Z,25.40
2018-08-31T19:13:32.397Z,22.50
2018-08-31T19:16:04.369Z,23.53
2018-08-31T19:18:37.205Z,21.17
2018-08-31T19:21:09.355Z,17.50
2018-08-31T19:23:42.183Z,22.00
2018-08-31T19:26:14.791Z,20.90
2018-08-31T19:28:48.821Z,19.23
2018-08-31T19:31:22.158Z,20.60
2018-08-31T19:33:54.999Z,22.43
2018-08-31T19:36:30.080Z,19.37
2018-08-31T19:39:05.383Z,19.17
2018-08-31T19:41:40.143Z,17.07
2018-08-31T19:44:14.031Z,22.67
2018-08-31T19:46:48.180Z,20.50
2018-08-31T19:49:22.223Z,20.53
2018-08-31T19:51:57.378Z,21.07
2018-08-31T19:54:29.940Z,21.07
2018-08-31T19:57:03.528Z,19.90
2018-08-31T19:59:39.434Z,24.77
2018-08-31T20:02:12.463Z,18.27
2018-08-31T20:04:45.261Z,22.93
2018-08-31T20:07:18.610Z,21.07
2018-08-31T20:09:50.430Z,24.37
2018-08-31T20:12:22.603Z,18.97
2018-08-31T20:14:54.852Z,18.70
2018-08-31T20:17:26.789Z,24.40
2018-08-31T20:19:59.166Z,26.53
2018-08-31T20:22:32.248Z,19.93
2018-08-31T20:25:06.522Z,19.73
2018-08-31T20:27:38.401Z,20.27
2018-08-31T20:30:11.590Z,19.97
2018-08-31T20:32:43.416Z,21.57
2018-08-31T20:35:15.374Z,23.83
2018-08-31T20:37:47.470Z,20.53
2018-08-31T20:40:19.476Z,17.87
2018-08-31T20:42:51.117Z,22.10
2018-08-31T20:45:23.169Z,24.20
2018-08-31T20:47:55.409Z,21.80
2018-08-31T20:50:28.496Z,18.13
2018-08-31T20:53:03.123Z,20.83
2018-08-31T20:55:35.541Z,18.27
2018-08-31T20:58:08.884Z,22.83
2018-08-31T21:00:40.855Z,19.63
2018-08-31T21:03:13.868Z,21.37
2018-08-31T21:05:46.284Z,20.70
2018-08-31T21:08:19.037Z,24.20
2018-08-31T21:10:51.378Z,16.10
2018-08-31T21:13:24.701Z,22.27
2018-08-31T21:15:56.785Z,21.30
2018-08-31T21:18:28.471Z,17.10
2018-08-31T21:21:01.030Z,20.00
2018-08-31T21:23:33.063Z,19.70
2018-08-31T21:26:04.691Z,21.37
2018-08-31T21:28:36.815Z,15.33
2018-08-31T21:31:08.571Z,18.13
2018-08-31T21:33:40.096Z,17.97
2018-08-31T21:36:10.981Z,22.07
2018-08-31T21:38:41.772Z,18.87
2018-08-31T21:41:12.598Z,19.33
2018-08-31T21:43:43.730Z,20.93
2018-08-31T21:46:14.698Z,19.30
2018-08-31T21:48:45.422Z,16.67
2018-08-31T21:51:16.369Z,17.60
2018-08-31T21:53:48.224Z,21.03
2018-08-31T21:56:19.125Z,17.17
2018-08-31T21:58:51.020Z,18.37
2018-08-31T22:01:26.729Z,17.07
2018-08-31T22:03:57.471Z,18.57
2018-08-31T22:06:28.170Z,21.93
2018-08-31T22:08:58.966Z,21.83
2018-08-31T22:11:29.769Z,17.87
2018-08-31T22:14:00.762Z,20.57
2018-08-31T22:16:31.878Z,25.10
2018-08-31T22:19:03.460Z,22.37
2018-08-31T22:21:38.606Z,19.17
2018-08-31T22:24:09.011Z,17.70
2018-08-31T22:26:40.311Z,18.67
2018-08-31T22:29:11.031Z,21.40
2018-08-31T22:31:42.002Z,20.67
2018-08-31T22:34:13.342Z,21.43
2018-08-31T22:36:44.303Z,20.03
2018-08-31T22:39:15.203Z,20.80
2018-08-31T22:41:46.137Z,18.00
2018-08-31T22:44:16.744Z,19.83
2018-08-31T22:46:47.433Z,19.03
2018-08-31T22:49:18.096Z,22.77
2018-08-31T22:51:49.075Z,19.83
2018-08-31T22:54:19.735Z,16.40
2018-08-31T22:56:50.435Z,20.73
2018-08-31T22:59:21.037Z,16.87
2018-08-31T23:01:51.527Z,19.93
2018-08-31T23:04:23.727Z,21.23
2018-08-31T23:06:54.353Z,20.73
2018-08-31T23:09:26.088Z,23.87
2018-08-31T23:11:56.635Z,16.87
2018-08-31T23:14:27.196Z,14.83
2018-08-31T23:16:57.782Z,17.20
2018-08-31T23:19:28.613Z,21.73
2018-08-31T23:21:59.590Z,17.67
2018-08-31T23:24:30.254Z,21.77
2018-08-31T23:27:00.838Z,20.43
2018-08-31T23:29:31.971Z,18.73
2018-08-31T23:32:03.202Z,19.00
2018-08-31T23:34:33.859Z,21.23
2018-08-31T23:37:04.377Z,20.53
2018-08-31T23:39:34.844Z,19.80
2018-08-31T23:42:05.290Z,23.00
2018-08-31T23:44:35.740Z,22.73
2018-08-31T23:47:06.929Z,21.80
2018-08-31T23:49:37.593Z,23.07
2018-08-31T23:52:08.249Z,23.17
2018-08-31T23:54:38.747Z,18.87
2018-08-31T23:57:10.672Z,19.37
2018-08-31T23:59:41.323Z,21.80
